This is the latest recevied weather packets stored in our database for station/object EB1GOD-1. If no packets are shown the sender has not sent any weather packets the latest 10 day(s).
| Time | Temp. | Humidity | Pressure | Rain* | Wind** | Luminosity | Snow |
|---|---|---|---|---|---|---|---|
| 1777888079 | 13.89° C | 70% | 1153.5 hPa | - | - | - | - |
| 1777887182 | 12.78° C | 75% | 1153.6 hPa | - | - | - | - |
| 1777886277 | 11.67° C | 81% | 1153.6 hPa | - | - | - | - |
| 1777885377 | 11.67° C | 82% | 1153.6 hPa | - | - | - | - |
| 1777884485 | 11.11° C | 85% | 1153.6 hPa | - | - | - | - |
| 1777883577 | 11.11° C | 87% | 1153.6 hPa | - | - | - | - |
| 1777882677 | 10.56° C | 87% | 1153.5 hPa | - | - | - | - |
| 1777881777 | 11.11° C | 89% | 1153.4 hPa | - | - | - | - |
| 1777880877 | 10.56° C | 89% | 1153.3 hPa | - | - | - | - |
| 1777879977 | 10° C | 91% | 1153.2 hPa | - | - | - | - |
| 1777879077 | 9.44° C | 91% | 1153.2 hPa | - | - | - | - |
| 1777878177 | 9.44° C | 91% | 1153.4 hPa | - | - | - | - |
| 1777877276 | 9.44° C | 91% | 1153.4 hPa | - | - | - | - |
| 1777876376 | 8.89° C | 91% | 1153.3 hPa | - | - | - | - |
| 1777875476 | 8.89° C | 90% | 1153.3 hPa | - | - | - | - |
| 1777874576 | 8.89° C | 90% | 1153 hPa | - | - | - | - |
| 1777873676 | 8.33° C | 90% | 1152.9 hPa | - | - | - | - |
| 1777872776 | 8.33° C | 92% | 1152.7 hPa | - | - | - | - |
| 1777871902 | 7.78° C | 93% | 1152.9 hPa | - | - | - | - |
| 1777871876 | 7.78° C | 93% | 1152.9 hPa | - | - | - | - |
| 1777870976 | 8.33° C | 91% | 1152.9 hPa | - | - | - | - |
| 1777870076 | 8.89° C | 90% | 1152.9 hPa | - | - | - | - |
| 1777869176 | 9.44° C | 88% | 1153 hPa | - | - | - | - |
| 1777868276 | 9.44° C | 89% | 1152.9 hPa | - | - | - | - |
| 1777867376 | 10° C | 89% | 1152.9 hPa | - | - | - | - |
* Rain since midnight (hover to see other rain measurements)
** Current wind speed in m/s (hover to see current wind gust speed)